Lawndale, North Carolina
Current Conditions -  °F | °C
As of 11:15 PM on Thursday 27 Nov 2014 (Local Time) from KEHO Reporting Station
Clear Clear  
Wind Chill: 26°   Ceiling: Unl
Heat Index: 34°   Visibility: 10mi
Dew Point: 23°   Wind: 9mph
Humidity: 66%   Direction: 300°WNW
Pressure: 30.3"   Gusts: NA
Location:  35.41°N, 81.56°W
Report Text: KEHO 280415Z AUTO 30008KT 10SM CLR 01/M05 A3030 RMK AO2 T00101048
Loading
Personal Weather Stations






























Interactive Weather Map New forecast layout! Learn more

10-Day Weather Forecast

Advertisements
Track Severe Weather on mobile